Time;durP1;ratioP1;P1;durP2;ratioP2;P2;SDS_P1;SDS_P2;PMS_P1;PMS_P2;Temp;Humidity;BMP_temperature;BMP_pressure;BME280_temperature;BME280_humidity;BME280_pressure;Samples;Min_cycle;Max_cycle;Signal;HPM_P1;HPM_P2
2022/05/31 00:01:45;;;;;;;12.00;3.90;;;;;;;18.13;66.48;93961.25;5102923;28;20091;-80
2022/05/31 00:04:11;;;;;;;12.35;3.72;;;;;;;18.11;66.56;93957.38;5084830;28;20315;-80
2022/05/31 00:06:36;;;;;;;11.55;4.07;;;;;;;18.04;66.58;93953.41;5084670;28;20129;-80
2022/05/31 00:09:02;;;;;;;8.32;4.22;;;;;;;18.06;66.43;93950.34;5102555;28;20211;-80
2022/05/31 00:11:28;;;;;;;15.13;3.83;;;;;;;18.03;66.45;93957.25;5102809;28;20016;-80
2022/05/31 00:13:53;;;;;;;9.65;4.45;;;;;;;18.00;66.30;93954.47;5102577;28;20024;-80
2022/05/31 00:16:19;;;;;;;13.35;3.50;;;;;;;17.96;66.30;93953.63;5102681;28;20012;-80
2022/05/31 00:18:44;;;;;;;9.18;3.90;;;;;;;17.94;66.62;93958.59;5102669;28;20371;-80
2022/05/31 00:21:10;;;;;;;12.32;3.55;;;;;;;17.86;66.56;93948.81;5102744;28;20214;-81
2022/05/31 00:23:39;;;;;;;8.45;3.33;;;;;;;17.72;66.88;93958.16;5102436;28;20192;-80
2022/05/31 00:26:05;;;;;;;16.98;4.30;;;;;;;17.62;66.85;93943.34;5102648;28;20039;-80
2022/05/31 00:28:31;;;;;;;8.88;3.88;;;;;;;17.59;66.76;93948.69;5102690;28;20020;-81
2022/05/31 00:30:56;;;;;;;11.50;4.05;;;;;;;17.52;66.65;93952.00;5102439;28;20031;-81
2022/05/31 00:33:22;;;;;;;11.43;3.58;;;;;;;17.51;66.91;93955.06;5084438;28;20038;-80
2022/05/31 00:35:53;;;;;;;12.50;3.63;;;;;;;17.49;67.04;93949.25;5102536;28;20028;-81
2022/05/31 00:38:20;;;;;;;11.65;3.65;;;;;;;17.44;67.24;93958.38;5102431;28;20016;-81
2022/05/31 00:40:46;;;;;;;10.75;4.18;;;;;;;17.49;67.69;93960.03;5102046;28;20046;-81
2022/05/31 00:43:16;;;;;;;20.02;3.88;;;;;;;17.44;67.37;93959.16;5102496;28;20023;-80
2022/05/31 00:46:11;;;;;;;11.50;3.65;;;;;;;17.45;66.73;93954.56;5102595;28;20016;-80
2022/05/31 00:48:50;;;;;;;11.48;3.67;;;;;;;17.50;66.23;93950.78;5092856;28;20055;-80
2022/05/31 00:51:19;;;;;;;11.73;3.38;;;;;;;17.49;65.87;93950.00;5105966;28;20325;-80
2022/05/31 00:53:54;;;;;;;13.63;3.65;;;;;;;17.55;66.10;93958.59;5105950;28;20306;-80
2022/05/31 00:56:23;;;;;;;11.90;4.57;;;;;;;17.61;65.35;93951.78;5105763;28;20020;-80
2022/05/31 00:59:20;;;;;;;8.65;3.92;;;;;;;17.59;65.21;93956.75;5105679;28;20062;-80
2022/05/31 01:01:51;;;;;;;9.48;4.18;;;;;;;17.56;65.60;93960.16;5105674;28;20195;-80
2022/05/31 01:04:18;;;;;;;13.18;4.03;;;;;;;17.55;65.25;93961.31;5105774;28;20028;-80
2022/05/31 01:06:44;;;;;;;17.25;3.85;;;;;;;17.56;65.46;93960.91;5106069;28;20188;-82
2022/05/31 01:09:09;;;;;;;9.73;3.67;;;;;;;17.59;65.22;93956.75;5106088;28;20091;-83
2022/05/31 01:11:41;;;;;;;10.65;3.55;;;;;;;17.58;65.62;93961.34;5105600;28;20311;-81
2022/05/31 01:14:07;;;;;;;7.60;3.50;;;;;;;17.59;65.53;93962.16;5106022;28;20032;-80
2022/05/31 01:16:32;;;;;;;9.63;3.88;;;;;;;17.64;65.55;93962.63;5105330;28;20270;-80
2022/05/31 01:18:58;;;;;;;8.27;3.67;;;;;;;17.66;65.75;93970.38;5105682;28;20035;-80
2022/05/31 01:21:23;;;;;;;10.18;3.63;;;;;;;17.69;65.80;93974.25;5105276;28;20036;-80
2022/05/31 01:24:04;;;;;;;8.90;3.33;;;;;;;17.70;66.08;93978.53;5105277;28;20052;-81
2022/05/31 01:26:33;;;;;;;20.15;5.03;;;;;;;17.70;65.88;93965.81;5105285;28;20021;-81
2022/05/31 01:29:05;;;;;;;11.93;3.72;;;;;;;17.67;66.04;93966.53;5105345;28;20031;-81
2022/05/31 01:31:37;;;;;;;9.40;3.40;;;;;;;17.69;65.83;93964.28;5087085;28;20027;-81
2022/05/31 01:34:22;;;;;;;6.28;3.45;;;;;;;17.68;65.40;93967.31;5105087;28;20028;-80
2022/05/31 01:36:56;;;;;;;8.32;3.67;;;;;;;17.68;65.49;93970.78;5105118;28;20022;-80
2022/05/31 01:40:02;;;;;;;9.07;3.78;;;;;;;17.68;65.86;93970.00;5105051;28;20047;-80
2022/05/31 01:42:42;;;;;;;4.63;3.05;;;;;;;17.66;65.23;93975.75;5104982;28;20365;-80
2022/05/31 01:45:22;;;;;;;5.35;3.00;;;;;;;17.67;65.51;93969.25;5104989;28;20043;-80
2022/05/31 01:47:49;;;;;;;10.70;3.63;;;;;;;17.69;65.35;93964.28;5104926;28;20099;-79
2022/05/31 01:50:18;;;;;;;6.90;3.08;;;;;;;17.68;65.74;93962.69;5104732;28;20062;-80
2022/05/31 01:52:46;;;;;;;6.80;3.55;;;;;;;17.67;65.64;93958.47;5104970;28;20024;-81
2022/05/31 01:55:13;;;;;;;9.73;3.60;;;;;;;17.70;66.31;93949.66;5104757;28;20024;-81
2022/05/31 01:57:42;;;;;;;7.45;3.20;;;;;;;17.69;66.43;93958.88;5104045;28;20344;-81
2022/05/31 02:00:12;;;;;;;11.95;3.35;;;;;;;17.69;67.00;93969.66;5104470;28;20020;-81
2022/05/31 02:02:38;;;;;;;6.13;3.42;;;;;;;17.65;67.13;93963.44;5104608;28;20019;-81
2022/05/31 02:05:05;;;;;;;8.68;3.38;;;;;;;17.61;67.07;93962.56;5104569;28;20052;-81
2022/05/31 02:07:30;;;;;;;10.15;3.60;;;;;;;17.55;67.36;93958.59;5104515;28;20099;-81
2022/05/31 02:09:56;;;;;;;10.02;3.20;;;;;;;17.50;67.11;93956.94;5104281;28;20062;-81
2022/05/31 02:12:23;;;;;;;8.48;3.40;;;;;;;17.47;67.43;93964.97;5104275;28;20024;-81
2022/05/31 02:14:49;;;;;;;11.63;3.53;;;;;;;17.46;67.40;93961.50;5104124;28;20207;-80
2022/05/31 02:17:17;;;;;;;8.73;3.30;;;;;;;17.42;67.48;93968.72;5104529;28;20038;-80
2022/05/31 02:19:44;;;;;;;11.23;3.90;;;;;;;17.39;67.40;93970.22;5104361;28;20101;-80
2022/05/31 02:22:14;;;;;;;10.35;3.88;;;;;;;17.35;67.28;93966.66;5104005;28;20028;-80
2022/05/31 02:24:39;;;;;;;8.63;3.65;;;;;;;17.30;67.46;93966.97;5103889;28;20038;-81
2022/05/31 02:27:07;;;;;;;11.73;3.70;;;;;;;17.25;67.40;93978.00;5086010;28;20096;-80
2022/05/31 02:29:34;;;;;;;13.07;4.20;;;;;;;17.20;67.69;93975.59;5103861;28;20027;-80
2022/05/31 02:32:02;;;;;;;8.05;3.63;;;;;;;17.18;67.66;93972.47;5103977;28;20028;-79
2022/05/31 02:34:32;;;;;;;7.32;3.90;;;;;;;17.14;67.69;93977.78;5103990;28;20034;-80
2022/05/31 02:36:57;;;;;;;5.82;3.65;;;;;;;17.13;67.97;93970.03;5103704;28;20089;-80
2022/05/31 02:39:23;;;;;;;9.55;3.55;;;;;;;17.03;67.86;93974.81;5103831;28;20032;-79
2022/05/31 02:41:50;;;;;;;7.90;3.92;;;;;;;17.01;68.44;93970.91;5103733;28;20108;-80
2022/05/31 02:44:16;;;;;;;6.63;4.00;;;;;;;16.98;68.46;93971.63;5104004;28;20020;-80
2022/05/31 02:46:42;;;;;;;9.27;3.80;;;;;;;16.95;68.60;93977.72;5103807;28;20056;-80
2022/05/31 02:49:08;;;;;;;6.57;3.60;;;;;;;16.95;69.02;93973.09;5103469;28;20142;-79
2022/05/31 02:51:36;;;;;;;9.93;4.45;;;;;;;16.95;68.48;93973.09;5103553;28;20024;-79
2022/05/31 02:54:02;;;;;;;8.40;3.80;;;;;;;16.93;68.78;93979.97;5103622;28;20026;-79
2022/05/31 02:56:28;;;;;;;13.10;4.30;;;;;;;16.90;68.88;93978.75;5103413;28;20020;-78
2022/05/31 02:58:53;;;;;;;10.70;4.10;;;;;;;16.90;69.18;93991.44;5103407;28;20095;-80
2022/05/31 03:01:30;;;;;;;7.05;4.00;;;;;;;16.89;69.00;93992.56;5103440;28;20023;-80
2022/05/31 03:03:55;;;;;;;8.45;4.07;;;;;;;16.86;69.20;93988.66;5103286;28;20050;-80
2022/05/31 03:06:22;;;;;;;5.90;4.05;;;;;;;16.86;68.70;93999.44;5103542;28;20036;-80
2022/05/31 03:08:48;;;;;;;10.27;3.75;;;;;;;16.83;68.94;94005.50;5103558;28;20028;-79
2022/05/31 03:11:20;;;;;;;10.93;4.00;;;;;;;16.84;69.03;93997.09;5103168;28;20069;-80
2022/05/31 03:13:49;;;;;;;9.77;3.47;;;;;;;16.80;68.71;94000.81;5103488;28;20023;-80
2022/05/31 03:16:16;;;;;;;8.85;4.43;;;;;;;16.77;68.96;94002.28;5103153;28;20032;-80
2022/05/31 03:18:47;;;;;;;12.13;3.70;;;;;;;16.76;68.84;93999.94;5103272;28;20058;-80
2022/05/31 03:21:21;;;;;;;10.95;3.60;;;;;;;16.72;69.03;94007.16;5103085;28;20028;-80
2022/05/31 03:23:52;;;;;;;9.80;4.63;;;;;;;16.72;69.24;93999.06;5103318;28;20245;-80
2022/05/31 03:26:20;;;;;;;11.82;4.10;;;;;;;16.73;69.26;94006.81;5103329;28;20031;-80
2022/05/31 03:28:46;;;;;;;7.40;3.95;;;;;;;16.71;69.58;94002.88;5102983;28;20039;-81
2022/05/31 03:31:11;;;;;;;10.52;4.53;;;;;;;16.67;70.11;94010.09;5103102;28;20057;-80
2022/05/31 03:33:37;;;;;;;7.05;4.15;;;;;;;16.68;70.45;94007.06;5102935;28;20337;-81
2022/05/31 03:36:04;;;;;;;11.82;4.53;;;;;;;16.68;70.37;94022.44;5102908;28;20031;-81
2022/05/31 03:38:30;;;;;;;10.18;5.00;;;;;;;16.65;71.13;94013.16;5103044;28;20214;-80
2022/05/31 03:41:01;;;;;;;11.98;5.22;;;;;;;16.64;71.24;94025.78;5102853;28;20046;-80
2022/05/31 03:43:35;;;;;;;8.93;4.25;;;;;;;16.60;71.88;94024.94;5102994;28;20023;-80
2022/05/31 03:46:01;;;;;;;15.48;4.97;;;;;;;16.61;72.21;94026.50;5102713;28;20031;-80
2022/05/31 03:48:27;;;;;;;14.52;5.32;;;;;;;16.51;72.65;94027.03;5103058;28;20229;-80
2022/05/31 03:51:04;;;;;;;12.43;6.00;;;;;;;16.51;72.77;94037.78;5102814;28;20012;-80
2022/05/31 03:53:30;;;;;;;13.35;5.78;;;;;;;16.51;72.99;94035.09;5102905;28;20272;-80
2022/05/31 03:55:56;;;;;;;12.18;5.55;;;;;;;16.49;73.35;94023.91;5102802;28;20019;-80
2022/05/31 03:58:22;;;;;;;18.77;6.15;;;;;;;16.49;73.46;94031.19;5102946;28;20031;-80
2022/05/31 04:00:48;;;;;;;16.85;6.07;;;;;;;16.47;73.70;94028.06;5102707;28;20048;-80
2022/05/31 04:03:13;;;;;;;15.40;6.32;;;;;;;16.51;73.66;94031.63;5084810;28;20024;-80
2022/05/31 04:05:39;;;;;;;17.27;6.43;;;;;;;16.53;73.48;94026.69;5102734;28;20019;-80
2022/05/31 04:08:08;;;;;;;14.48;5.90;;;;;;;16.58;73.56;94024.50;5084539;28;20024;-80
2022/05/31 04:10:35;;;;;;;18.30;6.45;;;;;;;16.69;73.64;94032.03;5102566;28;20020;-80
2022/05/31 04:13:00;;;;;;;21.08;6.05;;;;;;;16.75;73.17;94041.44;5102729;28;20026;-79
2022/05/31 04:15:27;;;;;;;11.20;5.82;;;;;;;16.83;73.02;94032.41;5102597;28;20016;-80
2022/05/31 04:17:52;;;;;;;15.88;6.65;;;;;;;16.88;72.86;94034.09;5102845;28;20024;-81
2022/05/31 04:20:18;;;;;;;17.45;6.22;;;;;;;16.93;72.32;94034.59;5102797;28;20039;-81
2022/05/31 04:22:43;;;;;;;23.23;7.03;;;;;;;16.96;72.11;94038.50;5105790;28;20016;-80
2022/05/31 04:25:09;;;;;;;19.67;6.00;;;;;;;17.07;72.08;94047.59;5106409;28;20016;-81
2022/05/31 04:27:34;;;;;;;12.07;5.68;;;;;;;17.11;71.87;94048.47;5106322;28;20020;-82
2022/05/31 04:30:00;;;;;;;18.42;6.13;;;;;;;17.19;71.89;94055.59;5106288;28;20061;-80
2022/05/31 04:32:25;;;;;;;21.33;7.60;;;;;;;17.21;71.73;94056.00;5106221;28;20092;-81
2022/05/31 04:34:52;;;;;;;22.77;7.28;;;;;;;17.22;72.21;94057.59;5106318;28;20012;-81
2022/05/31 04:37:18;;;;;;;16.13;7.07;;;;;;;17.17;72.37;94057.06;5106384;28;20027;-79
2022/05/31 04:39:44;;;;;;;13.00;6.53;;;;;;;17.14;72.98;94057.78;5106064;28;20221;-80
2022/05/31 04:42:10;;;;;;;13.45;6.30;;;;;;;17.14;72.92;94057.78;5105835;28;20040;-80
2022/05/31 04:44:35;;;;;;;20.25;6.72;;;;;;;17.15;73.78;94053.94;5105962;28;20044;-80
2022/05/31 04:47:02;;;;;;;13.18;6.25;;;;;;;17.21;73.25;94057.94;5106028;28;20376;-80
2022/05/31 04:49:28;;;;;;;14.60;7.32;;;;;;;17.28;73.65;94060.81;5106163;28;20091;-80
2022/05/31 04:51:53;;;;;;;17.50;6.32;;;;;;;17.34;73.26;94062.09;5105990;28;20326;-80
2022/05/31 04:54:20;;;;;;;12.35;6.40;;;;;;;17.38;72.79;94062.97;5105782;28;20016;-81
2022/05/31 04:56:46;;;;;;;22.52;7.25;;;;;;;17.43;72.50;94068.06;5105830;28;20019;-81
2022/05/31 04:59:12;;;;;;;14.90;6.43;;;;;;;17.48;72.57;94077.78;5105756;28;20020;-81
2022/05/31 05:01:38;;;;;;;16.13;7.53;;;;;;;17.49;72.86;94070.50;5105683;28;20016;-80
2022/05/31 05:04:04;;;;;;;14.18;6.00;;;;;;;17.46;72.38;94069.28;5105613;28;20302;-80
2022/05/31 05:06:30;;;;;;;17.13;6.90;;;;;;;17.45;72.55;94073.88;5105588;28;20092;-81
2022/05/31 05:08:56;;;;;;;15.60;6.10;;;;;;;17.54;72.82;94070.22;5105485;28;20016;-79
2022/05/31 05:11:23;;;;;;;14.43;7.25;;;;;;;17.66;71.39;94070.09;5105772;28;20016;-79
2022/05/31 05:13:49;;;;;;;21.20;6.68;;;;;;;17.72;70.72;94065.97;5105448;28;20020;-80
2022/05/31 05:16:16;;;;;;;22.90;6.43;;;;;;;17.82;70.22;94067.34;5105503;28;20326;-80
2022/05/31 05:18:42;;;;;;;16.85;5.60;;;;;;;17.87;70.48;94066.31;5105375;28;20081;-81
2022/05/31 05:21:11;;;;;;;10.70;5.18;;;;;;;17.99;69.60;94074.25;5105464;28;20279;-80
2022/05/31 05:23:37;;;;;;;14.82;5.25;;;;;;;18.12;68.88;94073.00;5105258;28;20027;-80
2022/05/31 05:26:03;;;;;;;14.13;6.00;;;;;;;18.17;67.89;94071.94;5105384;28;20066;-80
2022/05/31 05:31:22;;;;;;;16.02;5.15;;;;;;;18.27;68.36;94074.06;5105168;28;20389;-80
2022/05/31 05:33:48;;;;;;;20.23;5.32;;;;;;;18.35;67.49;94066.88;5104202;28;20195;-80
2022/05/31 05:36:14;;;;;;;15.75;5.13;;;;;;;18.36;67.50;94073.81;5105198;28;20244;-79
2022/05/31 05:38:39;;;;;;;13.80;5.05;;;;;;;18.44;67.37;94076.31;5105112;28;20039;-78
2022/05/31 05:41:05;;;;;;;17.58;5.03;;;;;;;18.50;66.35;94079.50;5104732;28;20103;-80
2022/05/31 05:43:30;;;;;;;17.63;5.22;;;;;;;18.57;65.94;94074.22;5104852;28;20020;-78
2022/05/31 05:45:56;;;;;;;13.07;6.35;;;;;;;18.55;66.72;94067.63;5104739;28;20035;-78
2022/05/31 05:48:22;;;;;;;14.80;4.95;;;;;;;18.72;66.43;94083.34;5104816;28;20062;-78
2022/05/31 05:50:48;;;;;;;18.98;5.10;;;;;;;18.78;65.41;94081.91;5104662;28;20016;-78
2022/05/31 05:53:13;;;;;;;19.00;5.28;;;;;;;18.85;64.81;94089.41;5104679;28;20020;-78
2022/05/31 05:55:39;;;;;;;18.00;5.72;;;;;;;18.90;64.88;94083.69;5104690;28;20034;-78
2022/05/31 05:58:09;;;;;;;12.00;5.10;;;;;;;19.00;64.81;94083.09;5104695;28;20329;-79
2022/05/31 06:00:43;;;;;;;15.23;5.15;;;;;;;19.03;65.05;94095.88;5104407;28;20024;-80
2022/05/31 06:03:17;;;;;;;14.75;5.53;;;;;;;18.99;64.24;94092.34;5104575;28;20020;-79
2022/05/31 06:05:45;;;;;;;16.58;6.07;;;;;;;18.97;64.31;94089.22;5104457;28;20031;-78
2022/05/31 06:08:21;;;;;;;14.85;5.60;;;;;;;19.07;64.19;94089.75;5104299;28;20344;-79
2022/05/31 06:11:06;;;;;;;15.05;5.45;;;;;;;19.13;64.20;94096.41;5104330;28;20105;-77
2022/05/31 06:13:55;;;;;;;22.13;5.95;;;;;;;19.20;64.18;94091.13;5104290;28;20027;-79
2022/05/31 06:16:24;;;;;;;17.55;4.38;;;;;;;19.29;64.00;94090.88;5104199;28;20130;-79
2022/05/31 06:18:58;;;;;;;17.90;5.55;;;;;;;19.34;64.10;94085.94;5104130;28;20024;-80
2022/05/31 06:21:25;;;;;;;24.00;4.35;;;;;;;19.42;63.49;94086.84;5104283;28;20024;-80
2022/05/31 06:23:53;;;;;;;10.68;4.97;;;;;;;19.48;63.38;94084.59;5104124;28;20028;-78
2022/05/31 06:26:19;;;;;;;21.45;6.90;;;;;;;19.56;63.53;94081.66;5104014;28;20027;-79
2022/05/31 06:28:46;;;;;;;10.02;4.70;;;;;;;19.62;62.69;94082.88;5103819;28;20099;-79
2022/05/31 06:31:11;;;;;;;9.90;4.13;;;;;;;19.71;62.07;94084.59;5103695;28;20031;-79
2022/05/31 06:33:36;;;;;;;9.85;5.28;;;;;;;19.76;61.72;94082.34;5085789;28;20024;-79
2022/05/31 06:36:03;;;;;;;9.48;5.03;;;;;;;19.82;61.38;94083.59;5085649;28;20335;-79
2022/05/31 06:38:29;;;;;;;10.80;5.07;;;;;;;19.94;61.58;94089.91;5103526;28;20083;-79
2022/05/31 06:41:51;;;;;;;18.10;5.72;;;;;;;20.00;60.98;94083.78;5103602;28;20032;-78
2022/05/31 06:44:16;;;;;;;13.90;5.25;;;;;;;19.98;61.02;94083.38;5008151;28;20044;-75
2022/05/31 06:46:41;;;;;;;13.48;5.30;;;;;;;19.93;62.03;94082.94;5102802;28;20039;-74
2022/05/31 06:49:07;;;;;;;15.77;4.90;;;;;;;19.99;61.35;94076.84;5085486;28;20107;-75
2022/05/31 06:57:02;;;;;;;13.50;4.85;;;;;;;20.27;61.96;94074.84;5103522;28;20116;-75
2022/05/31 06:59:28;;;;;;;19.70;5.47;;;;;;;20.35;60.60;94081.88;5103385;28;20147;-75
2022/05/31 07:02:03;;;;;;;10.60;4.65;;;;;;;20.37;60.63;94072.28;5103677;28;20321;-75
2022/05/31 07:04:29;;;;;;;15.55;5.18;;;;;;;20.54;60.80;94081.72;5103321;28;20035;-74
2022/05/31 07:06:54;;;;;;;19.08;4.85;;;;;;;20.67;59.52;94084.19;5103506;28;20027;-74
2022/05/31 07:09:19;;;;;;;18.05;5.90;;;;;;;20.67;60.58;94076.06;5103272;28;20016;-75
2022/05/31 07:11:45;;;;;;;12.63;5.75;;;;;;;20.69;60.27;94085.38;5103111;28;20334;-75
2022/05/31 07:14:10;;;;;;;15.82;5.97;;;;;;;20.75;61.09;94073.06;5084868;28;20064;-74
2022/05/31 07:16:36;;;;;;;16.67;6.38;;;;;;;20.83;60.28;94077.38;5103186;28;20366;-74
2022/05/31 07:19:01;;;;;;;13.18;5.20;;;;;;;20.97;60.15;94081.41;5103182;28;20016;-74
2022/05/31 07:21:26;;;;;;;12.77;5.50;;;;;;;21.12;58.17;94085.00;5102758;28;20024;-74
2022/05/31 07:23:53;;;;;;;16.00;6.30;;;;;;;21.09;58.58;94080.34;5103214;28;20051;-75
2022/05/31 07:26:20;;;;;;;19.05;7.50;;;;;;;21.13;58.54;94076.50;5102957;28;20215;-74
2022/05/31 07:28:46;;;;;;;15.90;6.22;;;;;;;21.20;58.22;94086.63;5103006;28;20087;-76
2022/05/31 07:31:11;;;;;;;14.88;6.63;;;;;;;21.20;58.02;94081.19;5103106;28;20068;-76
2022/05/31 07:33:37;;;;;;;23.58;6.50;;;;;;;21.08;59.09;94086.91;5102895;28;20027;-76
2022/05/31 07:36:04;;;;;;;17.65;7.22;;;;;;;21.12;58.84;94093.91;5102938;28;20019;-76
2022/05/31 07:38:29;;;;;;;14.82;6.90;;;;;;;21.12;58.62;94079.59;5103003;28;20026;-75
2022/05/31 07:40:55;;;;;;;16.92;7.10;;;;;;;21.24;58.69;94090.13;5102821;28;20312;-75
2022/05/31 07:43:21;;;;;;;15.05;7.03;;;;;;;21.39;58.76;94085.59;5102962;28;20303;-76
2022/05/31 07:45:46;;;;;;;19.60;7.60;;;;;;;21.48;58.00;94069.03;5102721;28;20023;-75
2022/05/31 07:48:12;;;;;;;20.67;7.40;;;;;;;21.55;57.43;94071.78;5102944;28;20023;-76
2022/05/31 07:50:38;;;;;;;25.17;7.22;;;;;;;21.63;57.17;94066.03;5102784;28;20019;-75
2022/05/31 07:53:04;;;;;;;19.02;6.35;;;;;;;21.75;57.17;94075.03;5102775;28;20091;-76
2022/05/31 07:55:30;;;;;;;20.50;8.52;;;;;;;21.88;56.14;94075.47;5102641;28;20016;-76
2022/05/31 08:00:41;;;;;;;17.33;6.88;;;;;;;22.00;56.09;94065.09;5106799;28;20031;-75
2022/05/31 08:03:08;;;;;;;15.23;7.10;;;;;;;22.10;56.06;94066.28;5106767;28;20029;-75
2022/05/31 08:05:37;;;;;;;14.55;6.53;;;;;;;22.12;55.69;94069.38;5106836;28;20027;-74
2022/05/31 08:08:03;;;;;;;21.20;6.40;;;;;;;22.23;54.13;94064.81;5106638;28;20023;-74
2022/05/31 08:10:29;;;;;;;15.38;6.80;;;;;;;22.30;54.07;94066.78;5106655;28;20258;-74
2022/05/31 08:12:54;;;;;;;19.02;6.75;;;;;;;22.32;53.96;94064.44;5106786;28;20024;-76
2022/05/31 08:15:20;;;;;;;16.65;6.90;;;;;;;22.28;53.34;94066.38;5106530;28;20090;-74
2022/05/31 08:17:46;;;;;;;11.40;6.03;;;;;;;22.38;55.46;94059.44;5106546;28;20326;-75
2022/05/31 08:20:13;;;;;;;15.80;5.68;;;;;;;22.44;52.93;94066.03;5106493;28;20090;-75
2022/05/31 08:22:39;;;;;;;14.88;6.00;;;;;;;22.40;53.06;94062.53;5106398;28;20345;-74
2022/05/31 08:25:06;;;;;;;19.33;6.65;;;;;;;22.46;53.28;94057.53;5088144;28;20318;-74
2022/05/31 08:27:34;;;;;;;16.70;5.80;;;;;;;22.54;52.60;94061.81;5106466;28;20024;-75
2022/05/31 08:30:01;;;;;;;21.48;5.93;;;;;;;22.62;51.98;94055.22;5106143;28;20028;-81
2022/05/31 08:32:26;;;;;;;11.50;5.57;;;;;;;22.72;52.68;94051.00;5106229;28;20337;-80
2022/05/31 08:34:53;;;;;;;16.92;5.68;;;;;;;22.89;52.90;94052.16;5106226;28;20024;-80
2022/05/31 08:37:18;;;;;;;17.92;5.63;;;;;;;23.07;51.89;94046.78;5106029;28;20028;-81
2022/05/31 08:39:44;;;;;;;14.27;5.35;;;;;;;23.14;51.81;94050.28;5106171;28;20363;-80
2022/05/31 08:42:14;;;;;;;15.68;6.10;;;;;;;23.31;51.28;94050.66;5105787;28;20036;-84
2022/05/31 08:45:00;;;;;;;14.00;4.90;;;;;;;23.47;51.08;94044.78;5105767;28;20024;-81
2022/05/31 08:47:38;;;;;;;16.40;4.93;;;;;;;23.63;50.07;94039.75;5106033;28;20027;-80
2022/05/31 08:53:03;;;;;;;16.60;5.57;;;;;;;23.93;49.24;94035.78;5106026;28;20353;-81
2022/05/31 08:58:31;;;;;;;12.25;4.13;;;;;;;23.88;47.30;94042.44;5105767;28;20214;-81
2022/05/31 09:00:58;;;;;;;16.95;5.00;;;;;;;23.92;48.08;94037.75;5105569;28;20042;-83
2022/05/31 09:03:30;;;;;;;19.02;5.03;;;;;;;24.03;47.53;94032.25;5105863;28;20023;-80
2022/05/31 09:06:07;;;;;;;8.45;4.40;;;;;;;24.11;47.57;94035.72;5105766;28;20061;-79
2022/05/31 09:08:57;;;;;;;16.05;3.80;;;;;;;24.18;47.25;94033.75;5105611;28;20031;-83
2022/05/31 09:11:57;;;;;;;13.18;5.20;;;;;;;24.39;47.42;94032.09;5105406;28;20057;-82
2022/05/31 09:14:25;;;;;;;12.18;5.13;;;;;;;24.49;47.02;94031.28;5072763;28;20031;-84
2022/05/31 09:17:01;;;;;;;12.52;3.88;;;;;;;24.66;46.72;94023.41;5105413;28;20031;-80
2022/05/31 09:19:35;;;;;;;12.35;4.38;;;;;;;24.81;46.45;94030.31;5087265;28;20020;-79
2022/05/31 09:22:01;;;;;;;17.55;4.72;;;;;;;24.98;46.12;94034.09;5105269;28;20130;-79
2022/05/31 09:24:28;;;;;;;15.75;4.50;;;;;;;25.12;45.94;94027.78;5105391;28;20095;-82
2022/05/31 09:26:56;;;;;;;12.45;4.07;;;;;;;25.27;44.30;94036.63;5105301;28;20032;-80
2022/05/31 09:29:27;;;;;;;20.75;4.80;;;;;;;25.39;44.72;94031.44;5105085;28;20024;-83
2022/05/31 09:32:02;;;;;;;13.02;4.70;;;;;;;25.53;43.56;94024.31;5087317;28;20314;-81
2022/05/31 09:34:27;;;;;;;12.18;4.07;;;;;;;25.53;42.56;94024.31;5105004;28;20035;-82
2022/05/31 09:37:10;;;;;;;14.63;4.13;;;;;;;25.54;42.84;94014.94;5105216;28;20027;-81
2022/05/31 09:39:36;;;;;;;15.48;4.25;;;;;;;25.61;43.62;94026.56;5104902;28;20047;-79
2022/05/31 09:42:12;;;;;;;13.95;4.38;;;;;;;25.75;43.22;94019.44;5104762;28;20043;-81
2022/05/31 09:44:44;;;;;;;12.40;3.80;;;;;;;25.86;41.86;94024.75;5104778;28;20020;-83
2022/05/31 09:47:17;;;;;;;;;;;;;;;25.89;40.97;94024.72;5105253;28;20024;-80
2022/05/31 09:49:46;;;;;;;13.45;3.97;;;;;;;25.83;41.64;94021.66;5104988;28;20133;-86
2022/05/31 09:52:42;;;;;;;12.18;3.53;;;;;;;25.87;40.45;94027.09;5104591;28;20097;-78
2022/05/31 09:58:36;;;;;;;16.95;4.03;;;;;;;25.96;39.14;94015.72;5104461;28;20046;-79
2022/05/31 10:01:12;;;;;;;9.38;3.95;;;;;;;25.92;40.12;94018.47;5104295;28;20022;-80
2022/05/31 10:03:46;;;;;;;10.27;3.42;;;;;;;25.90;39.24;94020.06;5104459;28;20016;-79
2022/05/31 10:06:23;;;;;;;9.20;3.58;;;;;;;25.93;39.74;94020.03;5104533;28;20046;-79
2022/05/31 10:08:53;;;;;;;9.02;3.13;;;;;;;25.81;40.94;94024.03;5104301;28;20048;-79
2022/05/31 10:11:27;;;;;;;9.35;3.22;;;;;;;25.84;39.31;94016.97;5104257;28;20076;-79
2022/05/31 10:14:27;;;;;;;13.43;3.67;;;;;;;25.90;39.66;94014.59;5104359;28;20306;-79
2022/05/31 10:16:54;;;;;;;13.60;4.05;;;;;;;25.92;39.70;94015.75;5071002;28;20108;-80
2022/05/31 10:19:22;;;;;;;12.15;3.35;;;;;;;25.98;38.78;94016.06;5103064;28;20101;-80
2022/05/31 10:21:48;;;;;;;10.07;3.28;;;;;;;25.88;39.16;94004.06;5103708;28;20039;-79
2022/05/31 10:24:20;;;;;;;15.23;3.80;;;;;;;25.85;40.68;94009.56;5103953;28;20024;-80
2022/05/31 10:27:05;;;;;;;;;;;;;;;25.88;40.36;94008.75;5104194;28;20032;-79
2022/05/31 10:29:46;;;;;;;8.32;3.70;;;;;;;25.97;40.78;94009.03;5102722;28;19950;-79
2022/05/31 10:32:26;;;;;;;9.68;3.60;;;;;;;26.21;40.08;93997.03;5103470;28;20028;-79
2022/05/31 10:35:13;;;;;;;11.25;3.58;;;;;;;26.41;38.85;93999.13;5103484;28;20055;-78
2022/05/31 10:37:48;;;;;;;13.32;4.40;;;;;;;26.49;39.12;93997.84;5103586;28;20044;-79
2022/05/31 10:40:22;;;;;;;8.25;3.40;;;;;;;26.27;38.63;93988.41;5102752;28;20239;-79
2022/05/31 10:42:52;;;;;;;11.48;3.40;;;;;;;26.34;39.22;93993.78;5103826;28;20215;-79
2022/05/31 10:45:22;;;;;;;13.80;3.55;;;;;;;26.32;41.06;93990.69;5103503;28;20031;-80
2022/05/31 10:47:48;;;;;;;11.73;3.58;;;;;;;26.33;40.01;93992.22;5103363;28;20040;-79
2022/05/31 10:50:14;;;;;;;6.93;3.25;;;;;;;26.34;40.30;93982.84;5103519;28;20012;-80
2022/05/31 10:52:50;;;;;;;8.52;2.95;;;;;;;26.38;39.32;93978.13;5103537;28;20028;-79
2022/05/31 10:55:33;;;;;;;11.18;3.00;;;;;;;26.47;39.52;93966.66;5103333;28;20311;-80
2022/05/31 10:58:28;;;;;;;7.18;3.60;;;;;;;26.63;39.29;93960.63;5103352;28;20256;-86
2022/05/31 11:01:03;;;;;;;5.78;3.20;;;;;;;26.85;39.64;93964.56;5092383;28;20024;-84
2022/05/31 11:03:28;;;;;;;8.35;3.72;;;;;;;27.01;39.42;93967.44;5103507;28;20028;-83
2022/05/31 11:05:57;;;;;;;10.85;3.70;;;;;;;27.07;38.31;93962.25;5103532;28;20039;-81
2022/05/31 11:11:46;;;;;;;8.48;3.00;;;;;;;27.35;37.04;93952.03;5103250;28;20049;-85
2022/05/31 11:14:36;;;;;;;13.18;4.47;;;;;;;27.28;37.24;93943.97;5103077;28;20222;-82
2022/05/31 11:17:29;;;;;;;8.20;3.53;;;;;;;27.09;37.82;93939.94;5103174;28;20027;-75
2022/05/31 11:20:01;;;;;;;10.52;2.60;;;;;;;27.09;35.96;93945.41;5103076;28;20027;-75
2022/05/31 11:23:03;;;;;;;10.07;3.08;;;;;;;27.29;36.14;93931.81;5102970;28;20230;-75
2022/05/31 11:25:51;;;;;;;7.32;2.97;;;;;;;27.46;36.35;93922.50;5103140;28;20121;-73
2022/05/31 11:28:23;;;;;;;7.97;2.80;;;;;;;27.61;36.02;93925.75;5102959;28;20065;-74
2022/05/31 11:30:51;;;;;;;;;;;;;;;27.67;35.90;93931.50;5102414;28;20049;-74
2022/05/31 11:33:31;;;;;;;10.35;2.83;;;;;;;27.79;35.63;93923.41;5102909;28;19904;-74
2022/05/31 11:36:18;;;;;;;13.20;3.22;;;;;;;28.02;34.98;93924.53;5102812;28;20032;-74
2022/05/31 11:39:03;;;;;;;9.63;3.13;;;;;;;28.25;35.50;93933.84;5102795;28;20058;-74
2022/05/31 11:42:02;;;;;;;17.55;3.47;;;;;;;28.43;33.30;93920.53;5102418;28;20212;-74
2022/05/31 11:44:36;;;;;;;9.13;2.40;;;;;;;28.52;32.40;93915.25;5102773;28;20028;-75
2022/05/31 11:47:16;;;;;;;13.93;2.80;;;;;;;28.43;32.38;93909.56;5102660;28;20119;-75
2022/05/31 11:50:13;;;;;;;12.82;2.47;;;;;;;28.62;32.77;93910.72;5102765;28;20141;-75
2022/05/31 11:53:11;;;;;;;10.07;2.88;;;;;;;28.80;30.84;93916.56;5102653;28;20028;-75
2022/05/31 11:55:49;;;;;;;5.20;2.17;;;;;;;28.94;30.44;93912.69;5102737;28;20134;-74
2022/05/31 11:58:49;;;;;;;7.32;2.17;;;;;;;28.85;31.28;93909.78;5102509;28;20073;-75
2022/05/31 12:01:24;;;;;;;13.70;2.42;;;;;;;28.70;30.14;93912.09;5099213;28;20109;-75
2022/05/31 12:04:04;;;;;;;5.93;2.60;;;;;;;28.45;31.06;93914.63;5102550;28;20122;-82
2022/05/31 12:06:52;;;;;;;11.02;2.25;;;;;;;28.32;32.24;93909.03;5102805;28;20278;-85
2022/05/31 12:09:26;;;;;;;13.15;2.50;;;;;;;28.27;31.93;93915.81;5102790;28;20024;-84